sensor_id;sensor_type;location;lat;lon;timestamp;pressure;altitude;pressure_sealevel;temperature;humidity
31911;BME280;18457;52.432;16.914;2023-05-07T00:01:05;101139.60;;;9.54;90.49
31911;BME280;18457;52.432;16.914;2023-05-07T00:03:37;101140.00;;;9.50;90.36
31911;BME280;18457;52.432;16.914;2023-05-07T00:06:09;101135.34;;;9.45;89.91
31911;BME280;18457;52.432;16.914;2023-05-07T00:08:43;101131.92;;;9.45;90.06
31911;BME280;18457;52.432;16.914;2023-05-07T00:11:15;101134.63;;;9.45;90.05
31911;BME280;18457;52.432;16.914;2023-05-07T00:13:47;101137.66;;;9.49;90.14
31911;BME280;18457;52.432;16.914;2023-05-07T00:16:18;101141.45;;;9.50;90.07
31911;BME280;18457;52.432;16.914;2023-05-07T00:18:50;101143.80;;;9.49;90.01
31911;BME280;18457;52.432;16.914;2023-05-07T00:21:22;101142.33;;;9.51;90.20
31911;BME280;18457;52.432;16.914;2023-05-07T00:23:57;101137.80;;;9.52;90.15
31911;BME280;18457;52.432;16.914;2023-05-07T00:26:28;101140.34;;;9.52;90.06
31911;BME280;18457;52.432;16.914;2023-05-07T00:29:00;101140.34;;;9.52;90.29
31911;BME280;18457;52.432;16.914;2023-05-07T00:31:32;101137.64;;;9.52;90.27
31911;BME280;18457;52.432;16.914;2023-05-07T00:34:04;101139.60;;;9.54;89.94
31911;BME280;18457;52.432;16.914;2023-05-07T00:36:36;101136.89;;;9.56;89.53
31911;BME280;18457;52.432;16.914;2023-05-07T00:39:08;101139.23;;;9.55;89.54
31911;BME280;18457;52.432;16.914;2023-05-07T00:41:40;101138.67;;;9.56;89.48
31911;BME280;18457;52.432;16.914;2023-05-07T00:44:11;101146.08;;;9.56;89.61
31911;BME280;18457;52.432;16.914;2023-05-07T00:46:43;101150.45;;;9.53;90.17
31911;BME280;18457;52.432;16.914;2023-05-07T00:49:15;101146.70;;;9.47;90.33
31911;BME280;18457;52.432;16.914;2023-05-07T00:51:49;101152.64;;;9.48;90.82
31911;BME280;18457;52.432;16.914;2023-05-07T00:54:22;101153.91;;;9.48;90.64
31911;BME280;18457;52.432;16.914;2023-05-07T00:56:53;101156.11;;;9.42;90.53
31911;BME280;18457;52.432;16.914;2023-05-07T00:59:26;101157.79;;;9.35;90.29
31911;BME280;18457;52.432;16.914;2023-05-07T01:01:58;101150.02;;;9.35;90.19
31911;BME280;18457;52.432;16.914;2023-05-07T01:04:30;101159.02;;;9.41;90.10
31911;BME280;18457;52.432;16.914;2023-05-07T01:07:02;101158.89;;;9.31;90.42
31911;BME280;18457;52.432;16.914;2023-05-07T01:09:35;101157.67;;;9.27;90.75
31911;BME280;18457;52.432;16.914;2023-05-07T01:12:09;101158.27;;;9.16;91.52
31911;BME280;18457;52.432;16.914;2023-05-07T01:14:42;101160.44;;;9.16;91.78
31911;BME280;18457;52.432;16.914;2023-05-07T01:17:14;101153.56;;;9.19;92.25
31911;BME280;18457;52.432;16.914;2023-05-07T01:19:47;101154.84;;;9.17;92.28
31911;BME280;18457;52.432;16.914;2023-05-07T01:22:28;101150.67;;;9.22;91.90
31911;BME280;18457;52.432;16.914;2023-05-07T01:25:02;101150.86;;;9.19;91.64
31911;BME280;18457;52.432;16.914;2023-05-07T01:27:35;101157.73;;;9.17;91.82
31911;BME280;18457;52.432;16.914;2023-05-07T01:30:07;101160.78;;;9.19;92.31
31911;BME280;18457;52.432;16.914;2023-05-07T01:32:43;101163.65;;;9.21;92.03
31911;BME280;18457;52.432;16.914;2023-05-07T01:35:20;101161.30;;;9.24;91.67
31911;BME280;18457;52.432;16.914;2023-05-07T01:37:54;101165.48;;;9.18;91.65
31911;BME280;18457;52.432;16.914;2023-05-07T01:40:27;101163.33;;;9.15;91.63
31911;BME280;18457;52.432;16.914;2023-05-07T01:42:57;101164.81;;;9.08;92.14
31911;BME280;18457;52.432;16.914;2023-05-07T01:45:29;101163.23;;;9.03;92.23
31911;BME280;18457;52.432;16.914;2023-05-07T01:48:00;101166.33;;;8.94;92.62
31911;BME280;18457;52.432;16.914;2023-05-07T01:50:33;101168.67;;;8.94;92.43
31911;BME280;18457;52.432;16.914;2023-05-07T01:53:06;101169.58;;;8.94;92.54
31911;BME280;18457;52.432;16.914;2023-05-07T01:55:37;101175.02;;;8.84;92.90
31911;BME280;18457;52.432;16.914;2023-05-07T01:58:11;101174.70;;;8.75;93.33
31911;BME280;18457;52.432;16.914;2023-05-07T02:00:43;101169.33;;;8.70;93.69
31911;BME280;18457;52.432;16.914;2023-05-07T02:03:14;101169.46;;;8.78;93.52
31911;BME280;18457;52.432;16.914;2023-05-07T02:05:55;101164.58;;;8.84;93.17
31911;BME280;18457;52.432;16.914;2023-05-07T02:08:41;101166.02;;;8.83;93.15
31911;BME280;18457;52.432;16.914;2023-05-07T02:11:14;101166.03;;;8.81;93.08
31911;BME280;18457;52.432;16.914;2023-05-07T02:13:46;101167.64;;;8.82;92.95
31911;BME280;18457;52.432;16.914;2023-05-07T02:16:18;101171.02;;;8.90;92.95
31911;BME280;18457;52.432;16.914;2023-05-07T02:18:50;101175.55;;;8.90;92.83
31911;BME280;18457;52.432;16.914;2023-05-07T02:21:22;101176.45;;;8.88;92.97
31911;BME280;18457;52.432;16.914;2023-05-07T02:23:54;101178.61;;;8.88;92.91
31911;BME280;18457;52.432;16.914;2023-05-07T02:26:27;101181.29;;;8.92;92.87
31911;BME280;18457;52.432;16.914;2023-05-07T02:28:59;101181.27;;;8.95;92.58
31911;BME280;18457;52.432;16.914;2023-05-07T02:31:31;101183.65;;;8.91;92.75
31911;BME280;18457;52.432;16.914;2023-05-07T02:34:05;101187.26;;;8.89;92.83
31911;BME280;18457;52.432;16.914;2023-05-07T02:36:37;101184.63;;;8.70;93.68
31911;BME280;18457;52.432;16.914;2023-05-07T02:39:13;101187.51;;;8.74;93.81
31911;BME280;18457;52.432;16.914;2023-05-07T02:41:45;101189.54;;;8.61;93.91
31911;BME280;18457;52.432;16.914;2023-05-07T02:44:17;101187.35;;;8.65;94.16
31911;BME280;18457;52.432;16.914;2023-05-07T02:46:51;101183.60;;;8.61;94.21
31911;BME280;18457;52.432;16.914;2023-05-07T02:49:23;101181.98;;;8.54;94.17
31911;BME280;18457;52.432;16.914;2023-05-07T02:51:55;101182.17;;;8.57;94.20
31911;BME280;18457;52.432;16.914;2023-05-07T02:54:27;101177.66;;;8.55;94.23
31911;BME280;18457;52.432;16.914;2023-05-07T02:56:58;101179.83;;;8.53;94.77
31911;BME280;18457;52.432;16.914;2023-05-07T02:59:31;101178.43;;;8.45;95.19
31911;BME280;18457;52.432;16.914;2023-05-07T03:02:03;101176.62;;;8.45;96.06
31911;BME280;18457;52.432;16.914;2023-05-07T03:04:35;101182.91;;;8.49;95.55
31911;BME280;18457;52.432;16.914;2023-05-07T03:07:07;101177.68;;;8.51;94.96
31911;BME280;18457;52.432;16.914;2023-05-07T03:09:38;101179.64;;;8.56;94.46
31911;BME280;18457;52.432;16.914;2023-05-07T03:12:10;101185.56;;;8.60;94.21
31911;BME280;18457;52.432;16.914;2023-05-07T03:14:42;101189.01;;;8.55;94.91
31911;BME280;18457;52.432;16.914;2023-05-07T03:17:14;101194.96;;;8.51;95.42
31911;BME280;18457;52.432;16.914;2023-05-07T03:19:46;101201.77;;;8.62;94.69
31911;BME280;18457;52.432;16.914;2023-05-07T03:22:18;101208.28;;;8.58;93.81
31911;BME280;18457;52.432;16.914;2023-05-07T03:24:50;101210.44;;;8.59;93.35
31911;BME280;18457;52.432;16.914;2023-05-07T03:27:22;101208.08;;;8.62;93.47
31911;BME280;18457;52.432;16.914;2023-05-07T03:29:55;101207.52;;;8.69;92.77
31911;BME280;18457;52.432;16.914;2023-05-07T03:32:27;101208.98;;;8.64;92.31
31911;BME280;18457;52.432;16.914;2023-05-07T03:34:59;101210.21;;;8.72;92.29
31911;BME280;18457;52.432;16.914;2023-05-07T03:37:30;101208.39;;;8.76;91.98
31911;BME280;18457;52.432;16.914;2023-05-07T03:40:03;101212.72;;;8.77;91.29
31911;BME280;18457;52.432;16.914;2023-05-07T03:42:36;101219.89;;;8.85;91.15
31911;BME280;18457;52.432;16.914;2023-05-07T03:45:10;101221.34;;;8.83;91.14
31911;BME280;18457;52.432;16.914;2023-05-07T03:47:44;101219.88;;;8.85;91.05
31911;BME280;18457;52.432;16.914;2023-05-07T03:50:19;101217.90;;;8.84;90.55
31911;BME280;18457;52.432;16.914;2023-05-07T03:52:51;101219.14;;;8.90;90.45
31911;BME280;18457;52.432;16.914;2023-05-07T03:55:23;101219.48;;;8.92;90.00
31911;BME280;18457;52.432;16.914;2023-05-07T03:57:58;101217.67;;;8.97;90.19
31911;BME280;18457;52.432;16.914;2023-05-07T04:00:30;101219.13;;;8.97;90.22
31911;BME280;18457;52.432;16.914;2023-05-07T04:03:10;101223.78;;;9.00;89.94
31911;BME280;18457;52.432;16.914;2023-05-07T04:05:42;101223.05;;;9.01;89.77
31911;BME280;18457;52.432;16.914;2023-05-07T04:08:14;101235.83;;;9.07;89.80
31911;BME280;18457;52.432;16.914;2023-05-07T04:10:49;101242.48;;;9.10;89.51
31911;BME280;18457;52.432;16.914;2023-05-07T04:13:25;101244.27;;;9.13;88.94
31911;BME280;18457;52.432;16.914;2023-05-07T04:15:58;101246.63;;;9.11;88.62
31911;BME280;18457;52.432;16.914;2023-05-07T04:18:30;101242.47;;;9.12;88.50
31911;BME280;18457;52.432;16.914;2023-05-07T04:21:03;101244.64;;;9.11;88.37
31911;BME280;18457;52.432;16.914;2023-05-07T04:23:37;101248.42;;;9.11;88.41
31911;BME280;18457;52.432;16.914;2023-05-07T04:26:11;101253.15;;;9.05;88.44
31911;BME280;18457;52.432;16.914;2023-05-07T04:28:45;101252.41;;;9.07;88.45
31911;BME280;18457;52.432;16.914;2023-05-07T04:31:17;101255.09;;;9.10;88.52
31911;BME280;18457;52.432;16.914;2023-05-07T04:33:53;101261.80;;;9.05;89.12
31911;BME280;18457;52.432;16.914;2023-05-07T04:36:25;101266.11;;;9.05;88.84
31911;BME280;18457;52.432;16.914;2023-05-07T04:39:03;101274.63;;;8.94;88.97
31911;BME280;18457;52.432;16.914;2023-05-07T04:41:36;101273.36;;;8.96;89.23
31911;BME280;18457;52.432;16.914;2023-05-07T04:44:08;101271.39;;;8.93;89.51
31911;BME280;18457;52.432;16.914;2023-05-07T04:46:41;101271.58;;;8.91;89.54
31911;BME280;18457;52.432;16.914;2023-05-07T04:49:13;101269.77;;;8.87;89.44
31911;BME280;18457;52.432;16.914;2023-05-07T04:51:46;101280.05;;;8.91;89.11
31911;BME280;18457;52.432;16.914;2023-05-07T04:54:19;101282.73;;;8.97;89.31
31911;BME280;18457;52.432;16.914;2023-05-07T04:56:51;101282.91;;;8.95;89.53
31911;BME280;18457;52.432;16.914;2023-05-07T04:59:23;101282.53;;;9.01;89.56
31911;BME280;18457;52.432;16.914;2023-05-07T05:01:55;101284.30;;;9.10;89.19
31911;BME280;18457;52.432;16.914;2023-05-07T05:04:26;101290.94;;;9.21;89.04
31911;BME280;18457;52.432;16.914;2023-05-07T05:06:59;101295.98;;;9.20;88.50
31911;BME280;18457;52.432;16.914;2023-05-07T05:09:31;101297.42;;;9.22;87.88
31911;BME280;18457;52.432;16.914;2023-05-07T05:12:02;101297.23;;;9.24;86.83
31911;BME280;18457;52.432;16.914;2023-05-07T05:14:34;101292.02;;;9.20;86.34
31911;BME280;18457;52.432;16.914;2023-05-07T05:17:07;101292.01;;;9.22;86.04
31911;BME280;18457;52.432;16.914;2023-05-07T05:19:39;101296.88;;;9.20;85.73
31911;BME280;18457;52.432;16.914;2023-05-07T05:22:11;101300.07;;;9.29;85.31
31911;BME280;18457;52.432;16.914;2023-05-07T05:24:43;101299.33;;;9.33;85.11
31911;BME280;18457;52.432;16.914;2023-05-07T05:27:15;101304.38;;;9.39;85.07
31911;BME280;18457;52.432;16.914;2023-05-07T05:29:47;101309.74;;;9.47;84.86
31911;BME280;18457;52.432;16.914;2023-05-07T05:32:19;101312.24;;;9.51;84.66
31911;BME280;18457;52.432;16.914;2023-05-07T05:34:52;101317.44;;;9.57;84.44
31911;BME280;18457;52.432;16.914;2023-05-07T05:37:24;101317.98;;;9.57;84.44
31911;BME280;18457;52.432;16.914;2023-05-07T05:39:55;101322.48;;;9.58;84.31
31911;BME280;18457;52.432;16.914;2023-05-07T05:42:29;101324.13;;;9.55;83.24
31911;BME280;18457;52.432;16.914;2023-05-07T05:45:00;101325.40;;;9.53;83.21
31911;BME280;18457;52.432;16.914;2023-05-07T05:47:33;101328.83;;;9.54;82.69
31911;BME280;18457;52.432;16.914;2023-05-07T05:50:07;101326.27;;;9.59;82.85
31911;BME280;18457;52.432;16.914;2023-05-07T05:52:40;101328.80;;;9.59;82.08
31911;BME280;18457;52.432;16.914;2023-05-07T05:55:12;101328.25;;;9.59;82.58
31911;BME280;18457;52.432;16.914;2023-05-07T05:57:44;101330.23;;;9.62;82.92
31911;BME280;18457;52.432;16.914;2023-05-07T06:00:17;101332.35;;;9.69;82.71
31911;BME280;18457;52.432;16.914;2023-05-07T06:02:58;101332.71;;;9.71;82.51
31911;BME280;18457;52.432;16.914;2023-05-07T06:05:30;101333.41;;;9.75;82.28
31911;BME280;18457;52.432;16.914;2023-05-07T06:08:02;101332.86;;;9.77;81.82
31911;BME280;18457;52.432;16.914;2023-05-07T06:10:37;101333.73;;;9.79;80.81
31911;BME280;18457;52.432;16.914;2023-05-07T06:13:09;101335.00;;;9.78;80.52
31911;BME280;18457;52.432;16.914;2023-05-07T06:15:41;101339.30;;;9.84;79.88
31911;BME280;18457;52.432;16.914;2023-05-07T06:18:13;101338.37;;;9.89;79.28
31911;BME280;18457;52.432;16.914;2023-05-07T06:20:45;101341.59;;;9.92;78.72
31911;BME280;18457;52.432;16.914;2023-05-07T06:23:24;101343.94;;;9.93;78.29
31911;BME280;18457;52.432;16.914;2023-05-07T06:25:56;101342.84;;;9.95;77.24
31911;BME280;18457;52.432;16.914;2023-05-07T06:28:31;101345.90;;;9.97;76.86
31911;BME280;18457;52.432;16.914;2023-05-07T06:31:18;101341.92;;;9.98;77.16
31911;BME280;18457;52.432;16.914;2023-05-07T06:33:58;101346.58;;;10.04;77.46
31911;BME280;18457;52.432;16.914;2023-05-07T06:36:37;101342.23;;;10.09;77.10
31911;BME280;18457;52.432;16.914;2023-05-07T06:39:21;101342.60;;;10.09;76.98
31911;BME280;18457;52.432;16.914;2023-05-07T06:41:55;101338.59;;;10.16;77.15
31911;BME280;18457;52.432;16.914;2023-05-07T06:44:30;101339.06;;;10.23;77.32
31911;BME280;18457;52.432;16.914;2023-05-07T06:47:09;101337.55;;;10.31;77.30
31911;BME280;18457;52.432;16.914;2023-05-07T06:49:43;101342.06;;;10.33;76.73
31911;BME280;18457;52.432;16.914;2023-05-07T06:52:16;101349.81;;;10.34;76.09
31911;BME280;18457;52.432;16.914;2023-05-07T06:54:49;101346.74;;;10.34;75.21
31911;BME280;18457;52.432;16.914;2023-05-07T06:57:22;101344.38;;;10.36;74.22
31911;BME280;18457;52.432;16.914;2023-05-07T06:59:54;101349.02;;;10.43;74.27
31911;BME280;18457;52.432;16.914;2023-05-07T07:02:26;101351.67;;;10.51;74.31
31911;BME280;18457;52.432;16.914;2023-05-07T07:04:59;101345.69;;;10.53;73.41
31911;BME280;18457;52.432;16.914;2023-05-07T07:07:31;101347.29;;;10.56;73.08
31911;BME280;18457;52.432;16.914;2023-05-07T07:10:03;101353.20;;;10.61;72.48
31911;BME280;18457;52.432;16.914;2023-05-07T07:12:35;101354.06;;;10.65;73.12
31911;BME280;18457;52.432;16.914;2023-05-07T07:15:09;101360.12;;;10.75;73.24
31911;BME280;18457;52.432;16.914;2023-05-07T07:17:42;101359.86;;;10.84;73.45
31911;BME280;18457;52.432;16.914;2023-05-07T07:20:14;101358.10;;;10.96;73.33
31911;BME280;18457;52.432;16.914;2023-05-07T07:22:47;101362.03;;;11.00;72.10
31911;BME280;18457;52.432;16.914;2023-05-07T07:25:20;101365.48;;;11.15;72.93
31911;BME280;18457;52.432;16.914;2023-05-07T07:27:52;101366.95;;;11.30;72.54
31911;BME280;18457;52.432;16.914;2023-05-07T07:30:25;101374.11;;;11.35;70.90
31911;BME280;18457;52.432;16.914;2023-05-07T07:32:58;101377.31;;;11.40;70.17
31911;BME280;18457;52.432;16.914;2023-05-07T07:35:34;101380.16;;;11.45;69.80
31911;BME280;18457;52.432;16.914;2023-05-07T07:38:08;101381.52;;;11.52;69.46
31911;BME280;18457;52.432;16.914;2023-05-07T07:40:40;101374.92;;;11.59;69.10
31911;BME280;18457;52.432;16.914;2023-05-07T07:43:14;101382.64;;;11.66;69.43
31911;BME280;18457;52.432;16.914;2023-05-07T07:45:46;101385.66;;;11.71;69.25
31911;BME280;18457;52.432;16.914;2023-05-07T07:48:18;101389.20;;;11.78;68.72
31911;BME280;18457;52.432;16.914;2023-05-07T07:50:51;101390.95;;;11.81;68.54
31911;BME280;18457;52.432;16.914;2023-05-07T07:53:24;101393.77;;;11.88;68.24
31911;BME280;18457;52.432;16.914;2023-05-07T07:55:54;101390.16;;;11.86;67.87
31911;BME280;18457;52.432;16.914;2023-05-07T07:58:30;101388.77;;;11.96;67.61
31911;BME280;18457;52.432;16.914;2023-05-07T08:01:03;101389.55;;;12.04;67.63
31911;BME280;18457;52.432;16.914;2023-05-07T08:03:35;101390.05;;;12.08;67.81
31911;BME280;18457;52.432;16.914;2023-05-07T08:06:09;101394.39;;;12.08;67.11
31911;BME280;18457;52.432;16.914;2023-05-07T08:08:41;101394.93;;;12.09;67.23
31911;BME280;18457;52.432;16.914;2023-05-07T08:11:14;101405.58;;;12.11;67.11
31911;BME280;18457;52.432;16.914;2023-05-07T08:13:47;101406.18;;;12.19;67.57
31911;BME280;18457;52.432;16.914;2023-05-07T08:16:19;101406.40;;;12.17;66.78
31911;BME280;18457;52.432;16.914;2023-05-07T08:18:55;101411.77;;;12.21;67.35
31911;BME280;18457;52.432;16.914;2023-05-07T08:21:27;101415.62;;;12.18;67.04
31911;BME280;18457;52.432;16.914;2023-05-07T08:23:59;101415.02;;;12.22;66.19
31911;BME280;18457;52.432;16.914;2023-05-07T08:26:32;101416.49;;;12.20;66.02
31911;BME280;18457;52.432;16.914;2023-05-07T08:29:04;101414.45;;;12.24;66.81
31911;BME280;18457;52.432;16.914;2023-05-07T08:31:36;101422.14;;;12.18;66.60
31911;BME280;18457;52.432;16.914;2023-05-07T08:34:09;101419.61;;;12.18;66.21
31911;BME280;18457;52.432;16.914;2023-05-07T08:36:43;101419.15;;;12.24;67.12
31911;BME280;18457;52.432;16.914;2023-05-07T08:39:17;101419.29;;;12.40;67.66
31911;BME280;18457;52.432;16.914;2023-05-07T08:41:54;101416.30;;;12.45;66.88
31911;BME280;18457;52.432;16.914;2023-05-07T08:44:28;101416.09;;;12.47;66.01
31911;BME280;18457;52.432;16.914;2023-05-07T08:47:07;101422.64;;;12.57;66.53
31911;BME280;18457;52.432;16.914;2023-05-07T08:49:40;101426.75;;;12.61;67.02
31911;BME280;18457;52.432;16.914;2023-05-07T08:52:12;101429.58;;;12.65;66.10
31911;BME280;18457;52.432;16.914;2023-05-07T08:54:45;101429.13;;;12.59;66.07
31911;BME280;18457;52.432;16.914;2023-05-07T08:57:17;101432.65;;;12.55;66.63
31911;BME280;18457;52.432;16.914;2023-05-07T08:59:50;101436.68;;;12.63;67.33
31911;BME280;18457;52.432;16.914;2023-05-07T09:02:22;101437.98;;;12.72;66.85
31911;BME280;18457;52.432;16.914;2023-05-07T09:04:53;101443.04;;;12.73;66.39
31911;BME280;18457;52.432;16.914;2023-05-07T09:07:26;101444.84;;;12.75;66.27
31911;BME280;18457;52.432;16.914;2023-05-07T09:09:58;101444.38;;;12.80;66.07
31911;BME280;18457;52.432;16.914;2023-05-07T09:12:32;101445.34;;;12.87;64.97
31911;BME280;18457;52.432;16.914;2023-05-07T09:15:09;101451.45;;;12.90;64.51
31911;BME280;18457;52.432;16.914;2023-05-07T09:17:41;101447.70;;;12.87;64.13
31911;BME280;18457;52.432;16.914;2023-05-07T09:20:18;101445.52;;;12.99;63.70
31911;BME280;18457;52.432;16.914;2023-05-07T09:22:50;101450.66;;;13.06;63.01
31911;BME280;18457;52.432;16.914;2023-05-07T09:25:30;101448.79;;;13.21;63.79
31911;BME280;18457;52.432;16.914;2023-05-07T09:28:06;101448.30;;;13.29;63.49
31911;BME280;18457;52.432;16.914;2023-05-07T09:30:40;101453.19;;;13.38;63.48
31911;BME280;18457;52.432;16.914;2023-05-07T09:33:13;101453.52;;;13.40;63.00
31911;BME280;18457;52.432;16.914;2023-05-07T09:35:48;101456.02;;;13.33;63.33
31911;BME280;18457;52.432;16.914;2023-05-07T09:38:22;101455.23;;;13.36;63.36
31911;BME280;18457;52.432;16.914;2023-05-07T09:41:06;101453.01;;;13.48;63.27
31911;BME280;18457;52.432;16.914;2023-05-07T09:43:44;101456.30;;;13.56;63.10
31911;BME280;18457;52.432;16.914;2023-05-07T09:46:16;101455.17;;;13.58;62.73
31911;BME280;18457;52.432;16.914;2023-05-07T09:48:54;101451.65;;;13.61;62.61
31911;BME280;18457;52.432;16.914;2023-05-07T09:51:33;101454.80;;;13.67;62.80
31911;BME280;18457;52.432;16.914;2023-05-07T09:54:09;101462.73;;;13.61;62.63
31911;BME280;18457;52.432;16.914;2023-05-07T09:56:44;101465.83;;;13.42;61.62
31911;BME280;18457;52.432;16.914;2023-05-07T09:59:17;101467.75;;;13.45;62.16
31911;BME280;18457;52.432;16.914;2023-05-07T10:01:52;101469.73;;;13.46;62.76
31911;BME280;18457;52.432;16.914;2023-05-07T10:04:29;101475.73;;;13.45;62.56
31911;BME280;18457;52.432;16.914;2023-05-07T10:07:02;101470.79;;;13.48;63.09
31911;BME280;18457;52.432;16.914;2023-05-07T10:09:36;101469.22;;;13.44;62.29
31911;BME280;18457;52.432;16.914;2023-05-07T10:12:11;101471.06;;;13.44;61.96
31911;BME280;18457;52.432;16.914;2023-05-07T10:14:43;101468.73;;;13.42;61.74
31911;BME280;18457;52.432;16.914;2023-05-07T10:17:17;101465.27;;;13.42;62.75
31911;BME280;18457;52.432;16.914;2023-05-07T10:19:51;101460.21;;;13.41;62.35
31911;BME280;18457;52.432;16.914;2023-05-07T10:22:26;101469.77;;;13.53;62.53
31911;BME280;18457;52.432;16.914;2023-05-07T10:25:01;101470.55;;;13.51;61.62
31911;BME280;18457;52.432;16.914;2023-05-07T10:27:36;101471.96;;;13.62;62.16
31911;BME280;18457;52.432;16.914;2023-05-07T10:30:15;101475.84;;;13.68;61.98
31911;BME280;18457;52.432;16.914;2023-05-07T10:32:50;101478.88;;;13.62;62.14
31911;BME280;18457;52.432;16.914;2023-05-07T10:35:31;101485.83;;;13.50;61.52
31911;BME280;18457;52.432;16.914;2023-05-07T10:38:05;101490.20;;;13.49;61.52
31911;BME280;18457;52.432;16.914;2023-05-07T10:40:39;101483.46;;;13.60;62.27
31911;BME280;18457;52.432;16.914;2023-05-07T10:43:12;101481.06;;;13.70;62.60
31911;BME280;18457;52.432;16.914;2023-05-07T10:46:10;101482.65;;;13.82;62.21
31911;BME280;18457;52.432;16.914;2023-05-07T10:49:09;101478.30;;;13.82;60.81
31911;BME280;18457;52.432;16.914;2023-05-07T10:52:18;101485.23;;;13.80;61.27
31911;BME280;18457;52.432;16.914;2023-05-07T10:55:21;101485.75;;;13.72;60.90
31911;BME280;18457;52.432;16.914;2023-05-07T10:58:26;101487.10;;;13.77;61.29
31911;BME280;18457;52.432;16.914;2023-05-07T11:01:52;101489.05;;;13.80;61.08
31911;BME280;18457;52.432;16.914;2023-05-07T11:05:23;101485.34;;;14.11;60.36
31911;BME280;18457;52.432;16.914;2023-05-07T11:08:09;101480.39;;;14.54;60.55
31911;BME280;18457;52.432;16.914;2023-05-07T11:10:51;101483.51;;;14.61;59.95
31911;BME280;18457;52.432;16.914;2023-05-07T11:13:45;101488.21;;;14.62;60.39
31911;BME280;18457;52.432;16.914;2023-05-07T11:16:26;101493.05;;;14.49;61.20
31911;BME280;18457;52.432;16.914;2023-05-07T11:19:12;101498.12;;;14.34;61.21
31911;BME280;18457;52.432;16.914;2023-05-07T11:21:48;101500.96;;;14.19;60.63
31911;BME280;18457;52.432;16.914;2023-05-07T11:24:41;101498.13;;;14.07;60.42
31911;BME280;18457;52.432;16.914;2023-05-07T11:27:15;101495.14;;;14.02;59.45
31911;BME280;18457;52.432;16.914;2023-05-07T11:29:54;101490.31;;;14.07;59.37
31911;BME280;18457;52.432;16.914;2023-05-07T11:32:28;101500.98;;;14.10;58.89
31911;BME280;18457;52.432;16.914;2023-05-07T11:35:02;101497.48;;;14.04;57.75
31911;BME280;18457;52.432;16.914;2023-05-07T11:37:34;101492.31;;;13.97;57.01
31911;BME280;18457;52.432;16.914;2023-05-07T11:40:09;101492.69;;;14.06;56.71
31911;BME280;18457;52.432;16.914;2023-05-07T11:42:42;101498.65;;;14.25;55.54
31911;BME280;18457;52.432;16.914;2023-05-07T11:45:24;101498.01;;;14.48;55.71
31911;BME280;18457;52.432;16.914;2023-05-07T11:47:56;101501.76;;;14.42;56.11
31911;BME280;18457;52.432;16.914;2023-05-07T11:50:28;101504.45;;;14.27;56.08
31911;BME280;18457;52.432;16.914;2023-05-07T11:53:00;101503.28;;;14.21;56.66
31911;BME280;18457;52.432;16.914;2023-05-07T11:55:32;101503.09;;;14.13;56.40
31911;BME280;18457;52.432;16.914;2023-05-07T11:58:04;101499.08;;;14.14;56.81
31911;BME280;18457;52.432;16.914;2023-05-07T12:00:38;101500.54;;;14.14;57.00
31911;BME280;18457;52.432;16.914;2023-05-07T12:03:10;101502.89;;;14.22;57.22
31911;BME280;18457;52.432;16.914;2023-05-07T12:05:42;101505.98;;;14.32;56.28
31911;BME280;18457;52.432;16.914;2023-05-07T12:08:16;101510.69;;;14.41;55.61
31911;BME280;18457;52.432;16.914;2023-05-07T12:10:49;101502.17;;;14.56;54.77
31911;BME280;18457;52.432;16.914;2023-05-07T12:13:23;101511.25;;;14.57;54.87
31911;BME280;18457;52.432;16.914;2023-05-07T12:15:56;101503.96;;;14.41;54.86
31911;BME280;18457;52.432;16.914;2023-05-07T12:18:29;101507.20;;;14.42;56.22
31911;BME280;18457;52.432;16.914;2023-05-07T12:21:01;101501.15;;;14.76;55.82
31911;BME280;18457;52.432;16.914;2023-05-07T12:23:34;101503.42;;;15.10;54.62
31911;BME280;18457;52.432;16.914;2023-05-07T12:26:07;101498.83;;;15.33;53.60
31911;BME280;18457;52.432;16.914;2023-05-07T12:28:40;101500.02;;;15.36;53.42
31911;BME280;18457;52.432;16.914;2023-05-07T12:31:13;101502.66;;;15.25;54.16
31911;BME280;18457;52.432;16.914;2023-05-07T12:33:46;101507.63;;;15.02;54.29
31911;BME280;18457;52.432;16.914;2023-05-07T12:36:18;101509.16;;;14.92;54.35
31911;BME280;18457;52.432;16.914;2023-05-07T12:38:51;101513.08;;;14.87;55.36
31911;BME280;18457;52.432;16.914;2023-05-07T12:41:23;101517.79;;;14.96;55.63
31911;BME280;18457;52.432;16.914;2023-05-07T12:43:59;101512.15;;;15.25;55.25
31911;BME280;18457;52.432;16.914;2023-05-07T12:46:31;101510.39;;;15.37;55.06
31911;BME280;18457;52.432;16.914;2023-05-07T12:49:03;101510.48;;;15.40;54.88
31911;BME280;18457;52.432;16.914;2023-05-07T12:51:37;101512.63;;;15.35;55.47
31911;BME280;18457;52.432;16.914;2023-05-07T12:54:09;101516.50;;;15.18;54.24
31911;BME280;18457;52.432;16.914;2023-05-07T12:56:41;101515.88;;;15.07;53.47
31911;BME280;18457;52.432;16.914;2023-05-07T12:59:13;101512.73;;;15.23;51.93
31911;BME280;18457;52.432;16.914;2023-05-07T13:01:46;101511.58;;;15.40;51.38
31911;BME280;18457;52.432;16.914;2023-05-07T13:04:18;101512.45;;;15.43;51.57
31911;BME280;18457;52.432;16.914;2023-05-07T13:06:51;101511.10;;;15.37;51.68
31911;BME280;18457;52.432;16.914;2023-05-07T13:09:23;101510.30;;;15.25;51.81
31911;BME280;18457;52.432;16.914;2023-05-07T13:11:55;101507.46;;;15.22;53.18
31911;BME280;18457;52.432;16.914;2023-05-07T13:14:27;101510.36;;;15.23;53.36
31911;BME280;18457;52.432;16.914;2023-05-07T13:16:59;101508.27;;;15.20;53.21
31911;BME280;18457;52.432;16.914;2023-05-07T13:19:31;101507.59;;;15.25;53.00
31911;BME280;18457;52.432;16.914;2023-05-07T13:22:03;101509.52;;;15.28;52.97